Time;durP1;ratioP1;P1;durP2;ratioP2;P2;SDS_P1;SDS_P2;PMS_P1;PMS_P2;Temp;Humidity;BMP_temperature;BMP_pressure;BME280_temperature;BME280_humidity;BME280_pressure;Samples;Min_cycle;Max_cycle;Signal;HPM_P1;HPM_P2
2021/06/05 00:00:24;;;;;;;0.20;0.20;;;15.80;99.90;;;;;;5069200;28;20055;-85
2021/06/05 00:02:50;;;;;;;0.30;0.30;;;15.80;99.90;;;;;;5067950;28;20111;-85
2021/06/05 00:05:17;;;;;;;0.10;0.10;;;15.80;99.90;;;;;;5069434;28;20111;-85
2021/06/05 00:07:42;;;;;;;0.13;0.13;;;15.80;99.90;;;;;;5067977;28;20461;-86
2021/06/05 00:10:13;;;;;;;0.23;0.23;;;15.80;99.90;;;;;;5081937;28;20059;-86
2021/06/05 00:12:39;;;;;;;0.17;0.17;;;15.70;99.90;;;;;;5071443;28;20501;-85
2021/06/05 00:15:13;;;;;;;0.03;0.03;;;15.70;99.90;;;;;;5067842;28;20037;-85
2021/06/05 00:17:39;;;;;;;0.45;0.20;;;15.60;99.90;;;;;;5069696;28;20023;-86
2021/06/05 00:20:09;;;;;;;0.17;0.17;;;15.60;99.90;;;;;;5069172;28;20031;-86
2021/06/05 00:22:35;;;;;;;0.10;0.10;;;15.60;99.90;;;;;;5068189;28;20263;-87
2021/06/05 00:25:00;;;;;;;1.33;0.23;;;15.60;99.90;;;;;;5066845;28;20029;-86
2021/06/05 00:27:26;;;;;;;0.20;0.20;;;15.60;99.90;;;;;;5067534;28;20094;-87
2021/06/05 00:29:52;;;;;;;0.40;0.40;;;15.60;99.90;;;;;;5069336;28;20052;-86
2021/06/05 00:32:18;;;;;;;0.10;0.10;;;15.60;99.90;;;;;;5067583;28;20446;-86
2021/06/05 00:34:43;;;;;;;0.20;0.20;;;15.60;99.90;;;;;;5067717;28;20047;-86
2021/06/05 00:37:09;;;;;;;0.20;0.20;;;15.50;99.90;;;;;;5068293;28;20077;-86
2021/06/05 00:39:35;;;;;;;0.83;0.73;;;15.50;99.90;;;;;;5068242;28;20060;-86
2021/06/05 00:42:01;;;;;;;0.43;0.20;;;15.40;99.90;;;;;;5067049;28;20047;-86
2021/06/05 00:44:27;;;;;;;0.37;0.30;;;15.40;99.90;;;;;;5067802;28;20043;-86
2021/06/05 00:46:52;;;;;;;0.30;0.20;;;15.40;99.90;;;;;;5067270;28;20028;-86
2021/06/05 00:49:18;;;;;;;0.27;0.27;;;15.40;99.90;;;;;;5066452;28;20036;-85
2021/06/05 00:51:49;;;;;;;0.20;0.20;;;15.40;99.90;;;;;;5069127;28;20037;-86
2021/06/05 00:54:16;;;;;;;0.10;0.10;;;15.50;99.90;;;;;;5066966;28;20056;-86
2021/06/05 00:56:53;;;;;;;0.10;0.10;;;15.40;99.90;;;;;;5065756;28;20021;-86
2021/06/05 00:59:19;;;;;;;;;;;15.40;99.90;;;;;;5067465;28;20044;-86
2021/06/05 01:01:45;;;;;;;0.10;0.10;;;15.40;99.90;;;;;;5066713;28;19923;-87
2021/06/05 01:04:12;;;;;;;0.10;0.10;;;15.40;99.90;;;;;;5068756;28;20058;-86
2021/06/05 01:06:48;;;;;;;0.10;0.10;;;15.40;99.90;;;;;;5068163;28;20508;-86
2021/06/05 01:09:20;;;;;;;0.75;0.75;;;15.30;99.90;;;;;;5072957;28;20096;-86
2021/06/05 01:12:07;;;;;;;0.10;0.10;;;15.40;99.90;;;;;;5089360;28;20054;-86
2021/06/05 01:14:41;;;;;;;0.20;0.20;;;15.30;99.90;;;;;;5072099;28;20021;-86
2021/06/05 01:17:19;;;;;;;1.63;0.28;;;15.40;99.90;;;;;;5068478;28;20025;-87
2021/06/05 01:19:53;;;;;;;1.65;0.45;;;15.40;99.90;;;;;;5068349;28;20101;-86
2021/06/05 01:22:53;;;;;;;0.25;0.25;;;15.30;99.90;;;;;;5067671;28;20040;-86
2021/06/05 01:25:37;;;;;;;0.47;0.47;;;15.40;99.90;;;;;;5066395;28;20032;-86
2021/06/05 01:28:11;;;;;;;0.20;0.20;;;15.30;99.90;;;;;;5067342;28;20029;-86
2021/06/05 01:30:45;;;;;;;0.10;0.10;;;15.30;99.90;;;;;;5065946;28;20139;-86
2021/06/05 01:33:12;;;;;;;0.30;0.30;;;15.30;99.90;;;;;;5061451;28;20071;-86
2021/06/05 01:35:40;;;;;;;0.73;0.73;;;15.40;99.90;;;;;;5068120;28;20028;-86
2021/06/05 01:38:08;;;;;;;0.30;0.30;;;15.40;99.90;;;;;;5068025;28;20021;-86
2021/06/05 01:40:34;;;;;;;0.10;0.10;;;15.30;99.90;;;;;;5065489;28;20137;-85
2021/06/05 01:43:03;;;;;;;0.20;0.20;;;15.30;99.90;;;;;;5065926;28;20401;-86
2021/06/05 01:45:34;;;;;;;0.30;0.30;;;15.40;99.90;;;;;;5066542;28;20033;-86
2021/06/05 01:48:01;;;;;;;0.25;0.25;;;15.30;99.90;;;;;;5064081;28;20043;-86
2021/06/05 01:50:30;;;;;;;0.22;0.22;;;15.20;99.90;;;;;;5068512;28;20028;-86
2021/06/05 01:53:10;;;;;;;1.48;0.22;;;15.20;99.90;;;;;;5066196;28;20036;-86
2021/06/05 01:55:58;;;;;;;0.28;0.28;;;15.30;99.90;;;;;;5067522;28;20033;-86
2021/06/05 01:58:28;;;;;;;0.20;0.20;;;15.20;99.90;;;;;;5066516;28;20048;-85
2021/06/05 02:00:56;;;;;;;0.32;0.32;;;15.30;99.90;;;;;;5067153;28;20056;-84
2021/06/05 02:03:23;;;;;;;0.08;0.08;;;15.20;99.90;;;;;;5066985;28;20024;-86
2021/06/05 02:05:50;;;;;;;0.13;0.13;;;15.30;99.90;;;;;;5066894;28;20104;-85
2021/06/05 02:08:20;;;;;;;0.10;0.10;;;15.20;99.90;;;;;;5066262;28;20025;-85
2021/06/05 02:10:46;;;;;;;0.30;0.30;;;15.20;99.90;;;;;;5067873;28;20041;-86
2021/06/05 02:13:40;;;;;;;0.17;0.17;;;15.30;99.90;;;;;;5067589;28;20025;-86
2021/06/05 02:16:29;;;;;;;0.32;0.32;;;15.20;99.90;;;;;;5067229;28;20035;-86
2021/06/05 02:19:00;;;;;;;0.20;0.20;;;15.20;99.90;;;;;;5066978;28;20413;-86
2021/06/05 02:21:29;;;;;;;0.28;0.28;;;15.20;99.90;;;;;;5067210;28;20044;-86
2021/06/05 02:24:02;;;;;;;0.10;0.10;;;15.20;99.90;;;;;;5067194;28;20103;-86
2021/06/05 02:26:28;;;;;;;1.17;0.95;;;15.10;99.90;;;;;;5066197;28;20402;-86
2021/06/05 02:28:58;;;;;;;0.20;0.20;;;15.20;99.90;;;;;;5067677;28;20032;-86
2021/06/05 02:31:26;;;;;;;0.20;0.20;;;15.10;99.90;;;;;;5066168;28;20588;-87
2021/06/05 02:33:52;;;;;;;0.10;0.10;;;15.20;99.90;;;;;;5068398;28;20028;-87
2021/06/05 02:36:19;;;;;;;0.10;0.10;;;15.20;99.90;;;;;;5067209;28;20068;-87
2021/06/05 02:38:49;;;;;;;0.20;0.20;;;15.10;99.90;;;;;;5067354;28;20028;-87
2021/06/05 02:41:17;;;;;;;0.10;0.10;;;15.10;99.90;;;;;;5065825;28;20036;-87
2021/06/05 02:43:44;;;;;;;0.10;0.10;;;15.20;99.90;;;;;;5067288;28;20052;-87
2021/06/05 02:46:23;;;;;;;0.20;0.20;;;15.20;99.90;;;;;;5067793;28;20055;-87
2021/06/05 02:48:56;;;;;;;0.30;0.30;;;15.20;99.90;;;;;;5066210;28;20438;-86
2021/06/05 02:51:27;;;;;;;0.20;0.20;;;15.20;99.90;;;;;;5067341;28;20119;-85
2021/06/05 02:53:53;;;;;;;0.20;0.15;;;15.20;99.90;;;;;;5068609;28;20625;-87
2021/06/05 02:56:20;;;;;;;0.10;0.10;;;15.20;99.90;;;;;;5067973;28;20032;-86
2021/06/05 02:58:46;;;;;;;;;;;15.20;99.90;;;;;;5070569;28;20025;-87
2021/06/05 03:01:12;;;;;;;0.10;0.10;;;15.20;99.90;;;;;;5069861;28;19963;-86
2021/06/05 03:03:38;;;;;;;0.50;0.40;;;15.20;99.90;;;;;;5069447;28;20595;-86
2021/06/05 03:06:04;;;;;;;0.43;0.43;;;15.10;99.90;;;;;;5069664;28;20029;-86
2021/06/05 03:08:33;;;;;;;0.32;0.32;;;15.10;99.90;;;;;;5069224;28;20434;-87
2021/06/05 03:11:00;;;;;;;0.10;0.10;;;15.10;99.90;;;;;;5049891;28;20123;-87
2021/06/05 03:13:25;;;;;;;0.20;0.20;;;15.10;99.90;;;;;;5067871;28;20020;-87
2021/06/05 03:15:52;;;;;;;0.10;0.10;;;15.20;99.90;;;;;;5069644;28;20032;-86
2021/06/05 03:18:21;;;;;;;0.20;0.20;;;15.20;99.90;;;;;;5068760;28;20032;-87
2021/06/05 03:20:49;;;;;;;0.10;0.10;;;15.10;99.90;;;;;;5068370;28;20153;-86
2021/06/05 03:23:17;;;;;;;0.13;0.13;;;15.10;99.90;;;;;;5069931;28;20032;-87
2021/06/05 03:25:46;;;;;;;22.25;0.63;;;15.20;99.90;;;;;;5067786;28;20043;-86
2021/06/05 03:28:12;;;;;;;0.20;0.20;;;15.20;99.90;;;;;;5069801;28;20032;-87
2021/06/05 03:30:38;;;;;;;0.20;0.20;;;15.20;99.90;;;;;;5068340;28;20060;-84
2021/06/05 03:33:04;;;;;;;0.25;0.25;;;15.20;99.90;;;;;;5069904;28;20402;-86
2021/06/05 03:35:30;;;;;;;0.10;0.10;;;15.20;99.90;;;;;;5070427;28;20017;-86
2021/06/05 03:37:56;;;;;;;0.10;0.10;;;15.10;99.90;;;;;;5069556;28;20032;-86
2021/06/05 03:40:26;;;;;;;0.30;0.30;;;15.10;99.90;;;;;;5070232;28;20107;-85
2021/06/05 03:42:52;;;;;;;0.98;0.60;;;15.10;99.90;;;;;;5070768;28;20032;-85
2021/06/05 03:45:19;;;;;;;0.20;0.20;;;15.20;99.90;;;;;;5068392;28;20537;-86
2021/06/05 03:47:48;;;;;;;0.28;0.28;;;15.10;99.90;;;;;;5070583;28;20051;-86
2021/06/05 03:50:17;;;;;;;0.13;0.13;;;15.20;99.90;;;;;;5068955;28;20038;-85
2021/06/05 03:52:43;;;;;;;0.20;0.20;;;15.10;99.90;;;;;;5068207;28;20032;-85
2021/06/05 03:55:11;;;;;;;0.10;0.10;;;15.00;99.90;;;;;;5069790;28;20023;-86
2021/06/05 03:57:37;;;;;;;0.20;0.20;;;15.00;99.90;;;;;;5068402;28;20040;-85
2021/06/05 04:00:10;;;;;;;0.20;0.20;;;15.00;99.90;;;;;;5068150;28;20067;-85
2021/06/05 04:02:36;;;;;;;0.22;0.22;;;14.90;99.90;;;;;;5069125;28;20306;-85
2021/06/05 04:05:03;;;;;;;0.43;0.43;;;14.90;99.90;;;;;;5069867;28;20109;-86
2021/06/05 04:07:29;;;;;;;0.30;0.30;;;15.00;99.90;;;;;;5069360;28;20125;-86
2021/06/05 04:09:55;;;;;;;0.50;0.50;;;14.90;99.90;;;;;;5080067;28;20566;-86
2021/06/05 04:12:21;;;;;;;0.10;0.10;;;14.90;99.90;;;;;;5074559;28;20028;-86
2021/06/05 04:14:47;;;;;;;0.30;0.30;;;14.90;99.90;;;;;;5068156;28;20425;-86
2021/06/05 04:17:12;;;;;;;0.15;0.15;;;14.90;99.90;;;;;;5069207;28;20520;-87
2021/06/05 04:19:39;;;;;;;0.10;0.10;;;14.90;99.90;;;;;;5067885;28;20048;-85
2021/06/05 04:22:06;;;;;;;0.20;0.20;;;15.00;99.90;;;;;;5067783;28;20071;-87
2021/06/05 04:24:33;;;;;;;0.10;0.10;;;14.90;99.90;;;;;;5069452;28;20331;-87
2021/06/05 04:26:59;;;;;;;0.20;0.20;;;14.80;99.90;;;;;;5067967;28;20033;-86
2021/06/05 04:29:25;;;;;;;0.28;0.28;;;14.90;99.90;;;;;;5068562;28;20433;-86
2021/06/05 04:31:51;;;;;;;3.73;0.70;;;14.80;99.90;;;;;;5069486;28;20025;-86
2021/06/05 04:34:16;;;;;;;0.20;0.20;;;14.90;99.90;;;;;;5067566;28;20580;-86
2021/06/05 04:36:42;;;;;;;0.23;0.23;;;14.90;99.90;;;;;;5067932;28;20401;-86
2021/06/05 04:39:08;;;;;;;0.10;0.10;;;14.90;99.90;;;;;;5068963;28;20021;-86
2021/06/05 04:41:36;;;;;;;0.47;0.30;;;14.90;99.90;;;;;;5068574;28;20448;-87
2021/06/05 04:44:07;;;;;;;0.22;0.22;;;14.80;99.90;;;;;;5068625;28;20045;-86
2021/06/05 04:46:35;;;;;;;0.13;0.13;;;14.80;99.90;;;;;;5068988;28;20024;-86
2021/06/05 04:49:04;;;;;;;0.15;0.15;;;14.80;99.90;;;;;;5068932;28;20033;-85
2021/06/05 04:51:31;;;;;;;0.10;0.10;;;14.80;99.90;;;;;;5068639;28;20024;-85
2021/06/05 04:53:58;;;;;;;1.48;0.65;;;14.90;99.90;;;;;;5067588;28;20493;-86
2021/06/05 04:56:34;;;;;;;0.20;0.20;;;14.80;99.90;;;;;;5068771;28;20104;-86
2021/06/05 04:59:00;;;;;;;0.60;0.47;;;14.90;99.90;;;;;;5068602;28;20052;-85
2021/06/05 05:01:26;;;;;;;0.40;0.40;;;14.90;99.90;;;;;;5066611;28;20109;-86
2021/06/05 05:03:52;;;;;;;0.20;0.20;;;14.80;99.90;;;;;;5067030;28;20044;-86
2021/06/05 05:06:18;;;;;;;0.13;0.13;;;14.90;99.90;;;;;;5066867;28;20029;-85
2021/06/05 05:08:43;;;;;;;0.30;0.30;;;14.90;99.90;;;;;;5070266;28;20035;-86
2021/06/05 05:11:10;;;;;;;0.13;0.13;;;14.80;99.90;;;;;;5082702;28;20029;-86
2021/06/05 05:13:35;;;;;;;0.30;0.30;;;15.00;99.90;;;;;;5068003;28;20505;-86
2021/06/05 05:16:03;;;;;;;0.30;0.30;;;15.50;99.90;;;;;;5065970;28;20031;-86
2021/06/05 05:18:30;;;;;;;0.30;0.30;;;16.40;99.90;;;;;;5068133;28;20078;-86
2021/06/05 05:20:57;;;;;;;0.20;0.20;;;16.80;99.90;;;;;;5067239;28;20135;-86
2021/06/05 05:23:27;;;;;;;0.85;0.52;;;18.10;99.90;;;;;;5068301;28;20028;-86
2021/06/05 05:25:54;;;;;;;0.43;0.30;;;17.00;99.90;;;;;;5066475;28;20036;-86
2021/06/05 05:28:20;;;;;;;0.28;0.28;;;16.30;99.90;;;;;;5066763;28;20082;-86
2021/06/05 05:30:51;;;;;;;0.25;0.25;;;16.30;99.90;;;;;;5067250;28;20055;-88
2021/06/05 05:33:18;;;;;;;0.00;0.00;;;16.40;99.90;;;;;;5067898;28;20028;-87
2021/06/05 05:35:44;;;;;;;0.10;0.10;;;18.20;99.90;;;;;;5067943;28;20020;-87
2021/06/05 05:38:11;;;;;;;0.10;0.10;;;17.20;99.90;;;;;;5067009;28;20031;-89
2021/06/05 05:40:40;;;;;;;0.10;0.10;;;17.00;99.90;;;;;;5067705;28;20029;-89
2021/06/05 05:43:06;;;;;;;0.13;0.13;;;18.00;99.90;;;;;;5067007;28;20025;-88
2021/06/05 05:45:32;;;;;;;0.00;0.00;;;18.10;99.90;;;;;;5066952;28;20095;-92
2021/06/05 05:48:01;;;;;;;0.00;0.00;;;18.50;99.90;;;;;;5066917;28;20028;-90
2021/06/05 05:50:29;;;;;;;0.05;0.05;;;18.70;99.90;;;;;;5066416;28;20025;-90
2021/06/05 05:52:54;;;;;;;0.00;0.00;;;19.40;99.90;;;;;;5068570;28;20402;-91
2021/06/05 05:55:21;;;;;;;0.00;0.00;;;19.90;99.90;;;;;;5068190;28;20027;-89
2021/06/05 05:57:49;;;;;;;0.10;0.10;;;20.00;99.90;;;;;;5067447;28;20413;-89
2021/06/05 06:00:23;;;;;;;0.22;0.10;;;21.30;99.90;;;;;;5067367;28;20078;-90
2021/06/05 06:02:49;;;;;;;0.15;0.00;;;22.20;99.90;;;;;;5067000;28;20033;-90
2021/06/05 06:05:15;;;;;;;0.00;0.00;;;22.20;99.90;;;;;;5066800;28;20031;-91
2021/06/05 06:07:41;;;;;;;0.00;0.00;;;21.00;99.90;;;;;;5067105;28;20510;-89
2021/06/05 06:10:10;;;;;;;0.10;0.10;;;20.70;99.90;;;;;;5072431;28;20028;-91
2021/06/05 06:12:36;;;;;;;0.22;0.22;;;21.20;99.90;;;;;;5066850;28;20040;-89
2021/06/05 06:15:10;;;;;;;0.20;0.20;;;19.40;99.90;;;;;;5066474;28;20029;-88
2021/06/05 06:17:36;;;;;;;0.10;0.10;;;20.50;99.90;;;;;;5066504;28;20039;-90
2021/06/05 06:20:03;;;;;;;;;;;21.10;99.90;;;;;;5067249;28;20552;-91
2021/06/05 06:22:29;;;;;;;0.00;0.00;;;22.30;99.90;;;;;;5067797;28;19900;-91
2021/06/05 06:24:55;;;;;;;0.10;0.10;;;21.60;99.90;;;;;;5061480;28;20036;-89
2021/06/05 06:27:21;;;;;;;2.00;1.23;;;23.00;99.90;;;;;;5067619;28;20027;-90
2021/06/05 06:29:46;;;;;;;0.17;0.00;;;21.30;99.90;;;;;;5071507;28;20049;-90
2021/06/05 06:32:13;;;;;;;0.00;0.00;;;24.10;99.90;;;;;;5063151;28;20028;-89
2021/06/05 06:34:40;;;;;;;0.10;0.00;;;26.60;99.90;;;;;;5052388;28;20051;-89
2021/06/05 06:37:07;;;;;;;0.00;0.00;;;26.20;99.90;;;;;;5067480;28;20021;-90
2021/06/05 06:39:35;;;;;;;0.00;0.00;;;25.40;99.90;;;;;;5068487;28;20040;-88
2021/06/05 06:42:01;;;;;;;0.35;0.20;;;25.60;99.90;;;;;;5067078;28;20100;-88
2021/06/05 06:44:31;;;;;;;0.30;0.10;;;25.20;99.90;;;;;;5060415;28;20555;-89
2021/06/05 06:46:58;;;;;;;0.10;0.10;;;22.90;99.90;;;;;;5061137;28;20023;-88
2021/06/05 06:49:37;;;;;;;0.00;0.00;;;24.30;99.90;;;;;;5057293;28;20025;-91
2021/06/05 06:52:04;;;;;;;0.00;0.00;;;20.60;99.90;;;;;;5041556;28;20040;-87
2021/06/05 06:54:30;;;;;;;0.00;0.00;;;20.30;99.90;;;;;;5065585;28;20073;-89
2021/06/05 06:56:56;;;;;;;0.00;0.00;;;19.60;99.90;;;;;;5069333;28;20025;-88
2021/06/05 06:59:22;;;;;;;0.10;0.10;;;19.20;99.90;;;;;;5067599;28;20040;-86
2021/06/05 07:01:48;;;;;;;0.52;0.10;;;18.80;99.90;;;;;;5069908;28;20017;-86
2021/06/05 07:04:14;;;;;;;0.20;0.10;;;19.70;99.90;;;;;;5068089;28;20052;-86
2021/06/05 07:06:40;;;;;;;0.03;0.03;;;19.80;99.90;;;;;;5061888;28;20064;-87
2021/06/05 07:09:07;;;;;;;0.10;0.10;;;20.50;99.90;;;;;;5065204;28;20356;-88
2021/06/05 07:11:36;;;;;;;0.10;0.10;;;23.40;99.90;;;;;;5068252;28;20029;-87
2021/06/05 07:14:04;;;;;;;0.15;0.10;;;24.80;99.90;;;;;;5066141;28;20113;-87
2021/06/05 07:16:32;;;;;;;0.00;0.00;;;25.10;99.90;;;;;;5058920;28;20514;-90
2021/06/05 07:18:59;;;;;;;0.10;0.10;;;27.20;99.90;;;;;;5062903;28;20017;-89
2021/06/05 07:21:26;;;;;;;0.10;0.10;;;26.60;99.90;;;;;;5068787;28;20107;-88
2021/06/05 07:23:52;;;;;;;0.08;0.08;;;27.00;99.90;;;;;;5069075;28;20050;-88
2021/06/05 07:26:21;;;;;;;;;;;25.50;99.90;;;;;;5069768;28;20047;-87
2021/06/05 07:28:51;;;;;;;0.00;0.00;;;27.20;99.90;;;;;;5069525;28;19916;-89
2021/06/05 07:31:23;;;;;;;0.00;0.00;;;27.40;99.90;;;;;;5069507;28;20036;-88
2021/06/05 07:33:50;;;;;;;0.00;0.00;;;26.40;99.90;;;;;;5067386;28;20600;-89
2021/06/05 07:36:21;;;;;;;15.88;1.13;;;27.80;99.90;;;;;;5066890;28;20168;-88
2021/06/05 07:38:47;;;;;;;0.00;0.00;;;26.60;99.90;;;;;;5069998;28;20025;-87
2021/06/05 07:41:13;;;;;;;;;;;29.40;99.90;;;;;;5071047;28;20397;-90
2021/06/05 07:43:39;;;;;;;0.63;0.57;;;28.20;98.90;;;;;;5071450;28;19905;-90
2021/06/05 07:46:06;;;;;;;0.10;0.00;;;28.20;97.90;;;;;;5069790;28;20150;-89
2021/06/05 07:48:33;;;;;;;0.10;0.05;;;25.30;98.20;;;;;;5067512;28;20106;-87
2021/06/05 07:50:59;;;;;;;0.08;0.08;;;25.50;99.90;;;;;;5069916;28;20414;-87
2021/06/05 07:53:26;;;;;;;0.00;0.00;;;22.80;99.10;;;;;;5069382;28;20023;-87
2021/06/05 07:55:52;;;;;;;0.17;0.17;;;24.30;98.60;;;;;;5069514;28;20594;-87
2021/06/05 07:58:18;;;;;;;0.32;0.00;;;27.10;94.50;;;;;;5069184;28;20031;-89
2021/06/05 08:00:44;;;;;;;0.15;0.13;;;25.50;95.90;;;;;;5071751;28;20393;-87
2021/06/05 08:03:12;;;;;;;0.00;0.00;;;24.50;98.10;;;;;;5071245;28;20093;-88
2021/06/05 08:05:39;;;;;;;0.10;0.10;;;25.70;94.90;;;;;;5053319;28;20025;-88
2021/06/05 08:08:07;;;;;;;0.20;0.20;;;28.60;94.80;;;;;;5072063;28;20103;-91
2021/06/05 08:10:34;;;;;;;0.00;0.00;;;27.70;92.50;;;;;;5072499;28;20016;-90
2021/06/05 08:13:00;;;;;;;0.00;0.00;;;26.80;88.30;;;;;;5071356;28;20024;-90
2021/06/05 08:15:31;;;;;;;0.00;0.00;;;28.40;93.30;;;;;;5071289;28;20028;-89
2021/06/05 08:17:57;;;;;;;0.00;0.00;;;25.40;90.60;;;;;;5072199;28;20040;-89
2021/06/05 08:20:29;;;;;;;0.30;0.30;;;22.50;93.40;;;;;;5070479;28;20032;-88
2021/06/05 08:22:58;;;;;;;0.00;0.00;;;26.30;91.50;;;;;;5071469;28;20107;-87
2021/06/05 08:25:25;;;;;;;0.00;0.00;;;28.10;88.80;;;;;;5070690;28;20154;-87
2021/06/05 08:27:52;;;;;;;0.00;0.00;;;31.20;79.80;;;;;;5068898;28;20522;-87
2021/06/05 08:30:25;;;;;;;1.23;0.20;;;27.80;73.60;;;;;;5069796;28;20078;-86
2021/06/05 08:32:51;;;;;;;0.00;0.00;;;27.70;81.10;;;;;;5068602;28;20043;-87
2021/06/05 08:35:17;;;;;;;;;;;30.60;77.70;;;;;;5069252;28;20021;-86
2021/06/05 08:37:43;;;;;;;0.00;0.00;;;31.70;79.40;;;;;;5068911;28;20404;-86
2021/06/05 08:40:12;;;;;;;0.00;0.00;;;30.80;70.00;;;;;;5069101;28;20016;-87
2021/06/05 08:42:50;;;;;;;0.10;0.10;;;28.80;66.30;;;;;;5068829;28;20032;-87
2021/06/05 08:45:24;;;;;;;0.00;0.00;;;24.30;83.60;;;;;;5064065;28;20071;-85
2021/06/05 08:47:51;;;;;;;0.10;0.00;;;24.60;90.00;;;;;;5068226;28;20512;-86
2021/06/05 08:50:25;;;;;;;0.00;0.00;;;30.80;75.90;;;;;;5068244;28;20024;-87
2021/06/05 08:53:05;;;;;;;0.00;0.00;;;32.20;69.70;;;;;;5060895;28;20068;-88
2021/06/05 08:55:39;;;;;;;0.08;0.08;;;30.90;60.40;;;;;;5055460;28;20658;-88
2021/06/05 08:58:13;;;;;;;0.47;0.40;;;30.90;63.70;;;;;;5055721;28;20025;-88
2021/06/05 09:00:48;;;;;;;0.20;0.10;;;32.60;58.20;;;;;;5063866;28;20017;-88
2021/06/05 09:03:18;;;;;;;0.00;0.00;;;32.80;53.20;;;;;;5071219;28;20032;-88
2021/06/05 09:06:23;;;;;;;0.10;0.10;;;32.50;52.30;;;;;;5058839;28;20104;-89
2021/06/05 09:08:49;;;;;;;3.20;1.13;;;34.90;51.80;;;;;;5045441;28;20045;-88
2021/06/05 09:11:15;;;;;;;;;;;29.90;52.20;;;;;;5028584;28;20892;-87
2021/06/05 09:13:43;;;;;;;0.00;0.00;;;31.50;56.50;;;;;;5028688;28;19913;-86
2021/06/05 09:16:24;;;;;;;0.57;0.57;;;35.30;47.90;;;;;;5045203;28;20024;-88
2021/06/05 09:18:54;;;;;;;0.00;0.00;;;33.50;45.30;;;;;;5026531;28;20159;-87
2021/06/05 09:21:35;;;;;;;0.00;0.00;;;32.60;56.90;;;;;;5028784;28;20064;-87
2021/06/05 09:24:30;;;;;;;0.00;0.00;;;32.40;45.10;;;;;;5047102;28;20063;-87
2021/06/05 09:27:14;;;;;;;0.03;0.03;;;33.10;48.90;;;;;;5039477;28;20088;-87
2021/06/05 09:29:56;;;;;;;0.10;0.10;;;34.80;37.70;;;;;;5046038;28;20048;-86
2021/06/05 09:32:33;;;;;;;0.00;0.00;;;34.70;40.50;;;;;;5046561;28;20043;-88
2021/06/05 09:35:10;;;;;;;0.00;0.00;;;30.70;40.40;;;;;;5012753;28;20044;-86
2021/06/05 09:37:42;;;;;;;0.00;0.00;;;27.90;50.40;;;;;;5028599;28;20025;-86
2021/06/05 09:40:23;;;;;;;0.20;0.20;;;25.80;68.00;;;;;;5043970;28;20033;-85
2021/06/05 09:43:14;;;;;;;0.05;0.05;;;28.60;54.50;;;;;;5045849;28;20055;-87
2021/06/05 09:45:47;;;;;;;1.88;0.20;;;35.40;44.70;;;;;;5052400;28;20053;-87
2021/06/05 09:48:28;;;;;;;0.15;0.10;;;29.30;51.50;;;;;;5058307;28;20048;-87
2021/06/05 09:50:57;;;;;;;0.00;0.00;;;25.20;57.40;;;;;;5060890;28;20024;-87
2021/06/05 09:53:36;;;;;;;0.10;0.10;;;23.00;63.60;;;;;;5054305;28;20021;-86
2021/06/05 09:56:21;;;;;;;8.90;0.55;;;23.10;66.00;;;;;;5058812;28;20021;-86
2021/06/05 09:58:58;;;;;;;0.13;0.13;;;22.60;66.40;;;;;;5064747;28;20028;-87
2021/06/05 10:01:27;;;;;;;0.00;0.00;;;25.60;60.10;;;;;;5066022;28;20036;-87
2021/06/05 10:04:07;;;;;;;2.60;0.30;;;24.50;62.50;;;;;;5055083;28;20039;-87
2021/06/05 10:06:43;;;;;;;0.00;0.00;;;23.90;61.70;;;;;;5063200;28;20031;-86
2021/06/05 10:09:25;;;;;;;0.00;0.00;;;22.60;64.80;;;;;;5062618;28;20028;-87
2021/06/05 10:12:16;;;;;;;0.22;0.10;;;30.50;51.80;;;;;;5066826;28;20039;-87
2021/06/05 10:14:58;;;;;;;0.05;0.05;;;34.20;34.90;;;;;;5067302;28;20016;-87
2021/06/05 10:17:36;;;;;;;0.32;0.10;;;35.90;34.50;;;;;;5066852;28;20021;-87
2021/06/05 10:20:23;;;;;;;0.15;0.15;;;30.00;37.60;;;;;;5063466;28;20093;-87
2021/06/05 10:22:55;;;;;;;0.00;0.00;;;25.30;53.10;;;;;;5070935;28;20086;-87
2021/06/05 10:25:37;;;;;;;0.08;0.08;;;27.60;55.10;;;;;;5064480;28;20071;-87
2021/06/05 10:28:11;;;;;;;0.00;0.00;;;33.30;40.00;;;;;;5066631;28;20028;-86
2021/06/05 10:30:50;;;;;;;0.00;0.00;;;36.70;32.50;;;;;;5069035;28;20047;-88
2021/06/05 10:33:42;;;;;;;0.20;0.20;;;25.50;47.70;;;;;;5066643;28;20044;-87
2021/06/05 10:36:18;;;;;;;0.00;0.00;;;23.20;55.40;;;;;;5072752;28;20033;-87
2021/06/05 10:38:45;;;;;;;0.00;0.00;;;22.50;58.50;;;;;;5069430;28;20020;-89
2021/06/05 10:41:31;;;;;;;0.00;0.00;;;22.00;61.30;;;;;;5060446;28;20036;-86
2021/06/05 10:43:57;;;;;;;0.90;0.35;;;25.80;60.70;;;;;;5062674;28;20029;-87
2021/06/05 10:46:30;;;;;;;;;;;33.00;42.40;;;;;;5070346;28;20514;-85
2021/06/05 10:49:33;;;;;;;0.00;0.00;;;29.30;40.60;;;;;;5062646;28;19920;-87
2021/06/05 10:52:08;;;;;;;0.88;0.47;;;24.80;52.30;;;;;;5032764;28;20102;-86
2021/06/05 10:54:43;;;;;;;0.00;0.00;;;22.60;59.00;;;;;;5029660;28;20040;-85
2021/06/05 10:57:18;;;;;;;0.10;0.10;;;22.30;60.80;;;;;;5049692;28;20099;-86
2021/06/05 10:59:55;;;;;;;0.00;0.00;;;21.90;62.20;;;;;;5033265;28;20061;-87
2021/06/05 11:02:43;;;;;;;0.03;0.03;;;22.90;65.10;;;;;;5032576;28;20565;-86
2021/06/05 11:05:23;;;;;;;0.00;0.00;;;30.30;60.50;;;;;;5049949;28;20775;-87
2021/06/05 11:08:11;;;;;;;0.10;0.10;;;31.20;41.70;;;;;;5035293;28;20040;-88
2021/06/05 11:11:12;;;;;;;0.00;0.00;;;31.70;40.50;;;;;;5040867;28;20068;-90
2021/06/05 11:13:41;;;;;;;0.47;0.20;;;29.80;43.10;;;;;;5030060;28;20124;-87
2021/06/05 11:16:17;;;;;;;0.10;0.10;;;31.80;41.90;;;;;;5046936;28;20022;-87
2021/06/05 11:18:52;;;;;;;0.05;0.05;;;31.80;40.10;;;;;;5023787;28;20033;-87
2021/06/05 11:21:28;;;;;;;0.00;0.00;;;30.30;42.60;;;;;;5031042;28;20056;-88
2021/06/05 11:23:58;;;;;;;0.00;0.00;;;30.00;40.60;;;;;;5031605;28;20025;-84
2021/06/05 11:29:26;;;;;;;0.00;0.00;;;26.50;47.20;;;;;;5066580;28;20397;-85
2021/06/05 11:32:16;;;;;;;0.00;0.00;;;24.10;53.60;;;;;;5060081;28;20029;-86
2021/06/05 11:34:42;;;;;;;0.00;0.00;;;23.10;56.40;;;;;;5058850;28;20394;-86
2021/06/05 11:37:14;;;;;;;0.23;0.23;;;22.70;58.70;;;;;;5061623;28;20029;-87
2021/06/05 11:39:50;;;;;;;0.10;0.10;;;22.70;59.90;;;;;;5065828;28;20024;-86
2021/06/05 11:42:19;;;;;;;0.08;0.08;;;22.50;60.70;;;;;;5062230;28;20081;-86
2021/06/05 11:44:56;;;;;;;0.00;0.00;;;22.50;61.40;;;;;;5063033;28;20083;-86
2021/06/05 11:47:22;;;;;;;0.35;0.15;;;22.00;62.00;;;;;;5066682;28;20024;-87
2021/06/05 11:49:52;;;;;;;0.00;0.00;;;21.50;63.20;;;;;;5073608;28;20051;-89
2021/06/05 11:52:31;;;;;;;0.00;0.00;;;21.80;62.40;;;;;;5080443;28;20363;-89
2021/06/05 11:55:06;;;;;;;0.00;0.00;;;22.10;62.10;;;;;;5069029;28;20055;-88
2021/06/05 11:57:52;;;;;;;0.00;0.00;;;22.30;62.00;;;;;;5082363;28;20021;-88
2021/06/05 12:00:28;;;;;;;0.10;0.10;;;22.10;61.90;;;;;;5055215;28;20499;-86
2021/06/05 12:03:47;;;;;;;0.00;0.00;;;21.50;63.10;;;;;;5050218;28;20124;-88
2021/06/05 12:06:30;;;;;;;0.00;0.00;;;21.20;64.30;;;;;;5030284;28;20426;-86
2021/06/05 12:09:19;;;;;;;0.08;0.08;;;21.80;62.10;;;;;;5030382;28;20697;-87
2021/06/05 12:11:54;;;;;;;0.10;0.10;;;21.80;63.00;;;;;;5050011;28;20029;-87
2021/06/05 12:17:37;;;;;;;0.10;0.10;;;22.90;63.20;;;;;;5049646;28;20060;-91
2021/06/05 12:20:21;;;;;;;0.20;0.20;;;22.70;62.30;;;;;;5063615;28;20437;-87
2021/06/05 12:22:50;;;;;;;0.00;0.00;;;22.80;63.10;;;;;;5030878;28;20040;-87
2021/06/05 12:25:31;;;;;;;0.15;0.15;;;22.70;64.80;;;;;;5036669;28;20049;-86
2021/06/05 12:28:13;;;;;;;0.00;0.00;;;22.10;67.00;;;;;;5049568;28;20632;-87
2021/06/05 12:30:43;;;;;;;0.00;0.00;;;22.60;66.00;;;;;;5032340;28;20053;-86
2021/06/05 12:33:12;;;;;;;0.00;0.00;;;23.20;63.00;;;;;;5064986;28;20036;-86
2021/06/05 12:35:41;;;;;;;0.05;0.00;;;23.50;60.80;;;;;;5049528;28;20062;-86
2021/06/05 12:38:11;;;;;;;0.00;0.00;;;22.20;65.20;;;;;;5065530;28;20042;-86
2021/06/05 12:40:58;;;;;;;0.00;0.00;;;22.60;63.90;;;;;;5060717;28;20032;-86
2021/06/05 12:43:31;;;;;;;0.00;0.00;;;22.80;64.80;;;;;;5057679;28;20044;-87
2021/06/05 12:45:59;;;;;;;0.00;0.00;;;23.20;63.90;;;;;;5068482;28;20024;-86
2021/06/05 12:48:27;;;;;;;0.03;0.03;;;23.30;75.60;;;;;;5069990;28;20017;-87
2021/06/05 12:50:53;;;;;;;0.00;0.00;;;23.00;62.90;;;;;;5068898;28;20126;-87
2021/06/05 12:53:25;;;;;;;0.10;0.05;;;23.00;61.20;;;;;;5073032;28;20052;-87
2021/06/05 12:55:55;;;;;;;0.00;0.00;;;22.90;61.90;;;;;;5071698;28;20033;-87
2021/06/05 12:58:36;;;;;;;0.20;0.20;;;22.90;62.40;;;;;;5064467;28;20090;-87
2021/06/05 13:01:05;;;;;;;0.10;0.10;;;23.10;63.30;;;;;;5059097;28;20029;-87
2021/06/05 13:03:43;;;;;;;1.02;0.03;;;23.30;61.00;;;;;;5064122;28;20017;-87
2021/06/05 13:06:26;;;;;;;0.00;0.00;;;23.20;60.70;;;;;;5065721;28;20100;-87
2021/06/05 13:09:14;;;;;;;0.00;0.00;;;23.10;60.20;;;;;;5065694;28;20032;-86
2021/06/05 13:11:44;;;;;;;2.40;0.57;;;22.90;60.20;;;;;;5057128;28;20517;-86
2021/06/05 13:14:22;;;;;;;0.00;0.00;;;22.60;60.80;;;;;;5062006;28;20493;-83